sensor_id;sensor_type;location;lat;lon;timestamp;P1;durP1;ratioP1;P2;durP2;ratioP2
44214;SDS011;29884;47.450;19.124;2023-01-15T00:01:15;35.97;;;16.50;;
44214;SDS011;29884;47.450;19.124;2023-01-15T00:03:47;34.83;;;16.10;;
44214;SDS011;29884;47.450;19.124;2023-01-15T00:06:14;31.17;;;17.02;;
44214;SDS011;29884;47.450;19.124;2023-01-15T00:08:40;34.92;;;17.65;;
44214;SDS011;29884;47.450;19.124;2023-01-15T00:11:06;34.15;;;17.55;;
44214;SDS011;29884;47.450;19.124;2023-01-15T00:13:31;37.38;;;16.85;;
44214;SDS011;29884;47.450;19.124;2023-01-15T00:16:07;29.83;;;16.58;;
44214;SDS011;29884;47.450;19.124;2023-01-15T00:18:35;34.55;;;17.35;;
44214;SDS011;29884;47.450;19.124;2023-01-15T00:21:03;32.42;;;16.85;;
44214;SDS011;29884;47.450;19.124;2023-01-15T00:23:31;33.30;;;17.27;;
44214;SDS011;29884;47.450;19.124;2023-01-15T00:26:16;33.03;;;16.67;;
44214;SDS011;29884;47.450;19.124;2023-01-15T00:29:02;32.85;;;16.02;;
44214;SDS011;29884;47.450;19.124;2023-01-15T00:31:29;30.17;;;16.52;;
44214;SDS011;29884;47.450;19.124;2023-01-15T00:33:56;31.30;;;16.25;;
44214;SDS011;29884;47.450;19.124;2023-01-15T00:36:21;30.67;;;16.40;;
44214;SDS011;29884;47.450;19.124;2023-01-15T00:38:47;28.73;;;15.00;;
44214;SDS011;29884;47.450;19.124;2023-01-15T00:41:13;28.20;;;15.85;;
44214;SDS011;29884;47.450;19.124;2023-01-15T00:43:39;31.15;;;15.68;;
44214;SDS011;29884;47.450;19.124;2023-01-15T00:46:05;29.90;;;15.73;;
44214;SDS011;29884;47.450;19.124;2023-01-15T00:48:32;28.63;;;15.63;;
44214;SDS011;29884;47.450;19.124;2023-01-15T00:50:58;31.40;;;16.65;;
44214;SDS011;29884;47.450;19.124;2023-01-15T00:53:24;30.30;;;15.10;;
44214;SDS011;29884;47.450;19.124;2023-01-15T00:55:50;33.58;;;17.95;;
44214;SDS011;29884;47.450;19.124;2023-01-15T00:58:16;31.55;;;16.88;;
44214;SDS011;29884;47.450;19.124;2023-01-15T01:00:41;30.67;;;15.77;;
44214;SDS011;29884;47.450;19.124;2023-01-15T01:03:07;29.38;;;15.63;;
44214;SDS011;29884;47.450;19.124;2023-01-15T01:05:33;30.27;;;14.82;;
44214;SDS011;29884;47.450;19.124;2023-01-15T01:07:58;28.88;;;14.45;;
44214;SDS011;29884;47.450;19.124;2023-01-15T01:10:25;29.33;;;14.82;;
44214;SDS011;29884;47.450;19.124;2023-01-15T01:12:51;28.88;;;14.93;;
44214;SDS011;29884;47.450;19.124;2023-01-15T01:15:21;23.58;;;13.63;;
44214;SDS011;29884;47.450;19.124;2023-01-15T01:17:47;25.40;;;13.68;;
44214;SDS011;29884;47.450;19.124;2023-01-15T01:20:14;26.15;;;13.77;;
44214;SDS011;29884;47.450;19.124;2023-01-15T01:22:41;22.58;;;13.18;;
44214;SDS011;29884;47.450;19.124;2023-01-15T01:25:07;24.25;;;12.65;;
44214;SDS011;29884;47.450;19.124;2023-01-15T01:27:34;22.55;;;13.45;;
44214;SDS011;29884;47.450;19.124;2023-01-15T01:29:59;27.25;;;14.32;;
44214;SDS011;29884;47.450;19.124;2023-01-15T01:32:25;25.75;;;13.90;;
44214;SDS011;29884;47.450;19.124;2023-01-15T01:34:51;26.40;;;14.52;;
44214;SDS011;29884;47.450;19.124;2023-01-15T01:37:17;28.38;;;13.80;;
44214;SDS011;29884;47.450;19.124;2023-01-15T01:39:42;30.25;;;14.02;;
44214;SDS011;29884;47.450;19.124;2023-01-15T01:42:12;25.20;;;13.40;;
44214;SDS011;29884;47.450;19.124;2023-01-15T01:47:08;24.75;;;13.82;;
44214;SDS011;29884;47.450;19.124;2023-01-15T01:49:39;21.00;;;12.30;;
44214;SDS011;29884;47.450;19.124;2023-01-15T01:52:11;26.67;;;13.25;;
44214;SDS011;29884;47.450;19.124;2023-01-15T01:54:41;29.30;;;14.18;;
44214;SDS011;29884;47.450;19.124;2023-01-15T01:57:10;27.25;;;13.05;;
44214;SDS011;29884;47.450;19.124;2023-01-15T01:59:37;26.98;;;12.85;;
44214;SDS011;29884;47.450;19.124;2023-01-15T02:02:03;24.80;;;13.07;;
44214;SDS011;29884;47.450;19.124;2023-01-15T02:04:29;25.52;;;13.30;;
44214;SDS011;29884;47.450;19.124;2023-01-15T02:06:56;25.83;;;13.55;;
44214;SDS011;29884;47.450;19.124;2023-01-15T02:09:24;26.00;;;12.93;;
44214;SDS011;29884;47.450;19.124;2023-01-15T02:11:50;24.95;;;13.52;;
44214;SDS011;29884;47.450;19.124;2023-01-15T02:27:17;25.92;;;13.40;;
44214;SDS011;29884;47.450;19.124;2023-01-15T02:29:49;25.63;;;13.07;;
44214;SDS011;29884;47.450;19.124;2023-01-15T02:32:34;25.27;;;13.55;;
44214;SDS011;29884;47.450;19.124;2023-01-15T02:35:11;25.75;;;13.32;;
44214;SDS011;29884;47.450;19.124;2023-01-15T02:37:45;23.60;;;13.18;;
44214;SDS011;29884;47.450;19.124;2023-01-15T02:40:14;22.10;;;12.77;;
44214;SDS011;29884;47.450;19.124;2023-01-15T02:42:45;23.75;;;12.73;;
44214;SDS011;29884;47.450;19.124;2023-01-15T02:45:13;25.73;;;12.05;;
44214;SDS011;29884;47.450;19.124;2023-01-15T02:47:48;21.52;;;12.55;;
44214;SDS011;29884;47.450;19.124;2023-01-15T02:50:16;21.90;;;12.85;;
44214;SDS011;29884;47.450;19.124;2023-01-15T02:52:44;22.83;;;11.90;;
44214;SDS011;29884;47.450;19.124;2023-01-15T02:55:17;22.70;;;11.52;;
44214;SDS011;29884;47.450;19.124;2023-01-15T02:57:47;23.45;;;11.85;;
44214;SDS011;29884;47.450;19.124;2023-01-15T03:00:16;27.25;;;12.55;;
44214;SDS011;29884;47.450;19.124;2023-01-15T03:02:47;24.15;;;12.75;;
44214;SDS011;29884;47.450;19.124;2023-01-15T03:05:19;25.83;;;10.98;;
44214;SDS011;29884;47.450;19.124;2023-01-15T03:07:59;24.50;;;12.25;;
44214;SDS011;29884;47.450;19.124;2023-01-15T03:13:31;27.33;;;12.50;;
44214;SDS011;29884;47.450;19.124;2023-01-15T03:19:23;24.55;;;11.75;;
44214;SDS011;29884;47.450;19.124;2023-01-15T03:21:56;23.50;;;12.75;;
44214;SDS011;29884;47.450;19.124;2023-01-15T03:27:03;28.83;;;12.65;;
44214;SDS011;29884;47.450;19.124;2023-01-15T03:29:30;23.95;;;12.57;;
44214;SDS011;29884;47.450;19.124;2023-01-15T03:31:59;22.40;;;12.68;;
44214;SDS011;29884;47.450;19.124;2023-01-15T03:34:25;31.10;;;12.70;;
44214;SDS011;29884;47.450;19.124;2023-01-15T03:36:55;23.40;;;12.27;;
44214;SDS011;29884;47.450;19.124;2023-01-15T03:39:21;26.20;;;13.27;;
44214;SDS011;29884;47.450;19.124;2023-01-15T03:41:49;25.83;;;12.77;;
44214;SDS011;29884;47.450;19.124;2023-01-15T03:44:31;26.15;;;12.63;;
44214;SDS011;29884;47.450;19.124;2023-01-15T03:52:26;25.13;;;13.15;;
44214;SDS011;29884;47.450;19.124;2023-01-15T04:02:49;22.50;;;12.35;;
44214;SDS011;29884;47.450;19.124;2023-01-15T04:05:18;25.85;;;13.73;;
44214;SDS011;29884;47.450;19.124;2023-01-15T04:07:44;24.95;;;12.52;;
44214;SDS011;29884;47.450;19.124;2023-01-15T04:10:12;23.48;;;11.82;;
44214;SDS011;29884;47.450;19.124;2023-01-15T04:12:38;24.73;;;12.88;;
44214;SDS011;29884;47.450;19.124;2023-01-15T04:15:04;26.08;;;12.93;;
44214;SDS011;29884;47.450;19.124;2023-01-15T04:17:30;26.40;;;12.60;;
44214;SDS011;29884;47.450;19.124;2023-01-15T04:19:55;21.98;;;12.05;;
44214;SDS011;29884;47.450;19.124;2023-01-15T04:22:21;23.75;;;11.45;;
44214;SDS011;29884;47.450;19.124;2023-01-15T04:24:47;27.33;;;13.43;;
44214;SDS011;29884;47.450;19.124;2023-01-15T04:27:13;23.08;;;13.13;;
44214;SDS011;29884;47.450;19.124;2023-01-15T04:29:38;22.30;;;12.77;;
44214;SDS011;29884;47.450;19.124;2023-01-15T04:32:04;23.50;;;12.60;;
44214;SDS011;29884;47.450;19.124;2023-01-15T04:34:30;23.08;;;11.93;;
44214;SDS011;29884;47.450;19.124;2023-01-15T04:36:56;21.40;;;12.23;;
44214;SDS011;29884;47.450;19.124;2023-01-15T04:39:21;19.92;;;11.13;;
44214;SDS011;29884;47.450;19.124;2023-01-15T04:41:47;18.88;;;10.65;;
44214;SDS011;29884;47.450;19.124;2023-01-15T04:44:32;20.58;;;10.88;;
44214;SDS011;29884;47.450;19.124;2023-01-15T04:46:59;19.25;;;11.30;;
44214;SDS011;29884;47.450;19.124;2023-01-15T04:49:24;22.42;;;10.70;;
44214;SDS011;29884;47.450;19.124;2023-01-15T04:51:51;20.33;;;10.50;;
44214;SDS011;29884;47.450;19.124;2023-01-15T04:54:17;22.02;;;11.35;;
44214;SDS011;29884;47.450;19.124;2023-01-15T04:56:47;21.23;;;11.93;;
44214;SDS011;29884;47.450;19.124;2023-01-15T04:59:16;20.42;;;11.10;;
44214;SDS011;29884;47.450;19.124;2023-01-15T05:01:43;19.50;;;10.60;;
44214;SDS011;29884;47.450;19.124;2023-01-15T05:04:08;19.27;;;10.57;;
44214;SDS011;29884;47.450;19.124;2023-01-15T05:06:34;17.15;;;10.45;;
44214;SDS011;29884;47.450;19.124;2023-01-15T05:09:00;18.13;;;10.68;;
44214;SDS011;29884;47.450;19.124;2023-01-15T05:11:28;16.95;;;9.88;;
44214;SDS011;29884;47.450;19.124;2023-01-15T05:13:54;18.92;;;10.57;;
44214;SDS011;29884;47.450;19.124;2023-01-15T05:16:20;15.25;;;9.38;;
44214;SDS011;29884;47.450;19.124;2023-01-15T05:18:48;17.27;;;10.40;;
44214;SDS011;29884;47.450;19.124;2023-01-15T05:21:15;17.98;;;10.38;;
44214;SDS011;29884;47.450;19.124;2023-01-15T05:23:44;17.70;;;9.88;;
44214;SDS011;29884;47.450;19.124;2023-01-15T05:26:11;17.17;;;9.85;;
44214;SDS011;29884;47.450;19.124;2023-01-15T05:28:37;19.02;;;10.85;;
44214;SDS011;29884;47.450;19.124;2023-01-15T05:31:07;17.98;;;9.68;;
44214;SDS011;29884;47.450;19.124;2023-01-15T05:33:34;18.05;;;10.07;;
44214;SDS011;29884;47.450;19.124;2023-01-15T05:36:05;16.33;;;9.68;;
44214;SDS011;29884;47.450;19.124;2023-01-15T05:38:33;17.58;;;10.27;;
44214;SDS011;29884;47.450;19.124;2023-01-15T05:41:02;18.13;;;10.43;;
44214;SDS011;29884;47.450;19.124;2023-01-15T05:43:49;18.83;;;9.73;;
44214;SDS011;29884;47.450;19.124;2023-01-15T05:46:14;17.38;;;9.40;;
44214;SDS011;29884;47.450;19.124;2023-01-15T05:48:40;16.73;;;9.63;;
44214;SDS011;29884;47.450;19.124;2023-01-15T05:51:06;20.35;;;10.23;;
44214;SDS011;29884;47.450;19.124;2023-01-15T05:53:32;19.70;;;10.23;;
44214;SDS011;29884;47.450;19.124;2023-01-15T05:56:02;17.35;;;7.90;;
44214;SDS011;29884;47.450;19.124;2023-01-15T05:58:29;12.13;;;6.38;;
44214;SDS011;29884;47.450;19.124;2023-01-15T06:00:55;17.17;;;8.27;;
44214;SDS011;29884;47.450;19.124;2023-01-15T06:03:21;16.67;;;9.15;;
44214;SDS011;29884;47.450;19.124;2023-01-15T06:05:50;18.10;;;9.63;;
44214;SDS011;29884;47.450;19.124;2023-01-15T06:08:16;26.60;;;14.02;;
44214;SDS011;29884;47.450;19.124;2023-01-15T06:10:45;15.85;;;9.52;;
44214;SDS011;29884;47.450;19.124;2023-01-15T06:13:12;19.98;;;11.52;;
44214;SDS011;29884;47.450;19.124;2023-01-15T06:15:38;19.55;;;10.27;;
44214;SDS011;29884;47.450;19.124;2023-01-15T06:18:04;17.40;;;9.27;;
44214;SDS011;29884;47.450;19.124;2023-01-15T06:20:30;21.02;;;10.30;;
44214;SDS011;29884;47.450;19.124;2023-01-15T06:22:59;21.02;;;10.10;;
44214;SDS011;29884;47.450;19.124;2023-01-15T06:25:25;17.77;;;9.73;;
44214;SDS011;29884;47.450;19.124;2023-01-15T06:27:50;17.73;;;9.52;;
44214;SDS011;29884;47.450;19.124;2023-01-15T06:30:16;19.83;;;9.57;;
44214;SDS011;29884;47.450;19.124;2023-01-15T06:32:42;17.55;;;9.75;;
44214;SDS011;29884;47.450;19.124;2023-01-15T06:35:08;20.08;;;10.07;;
44214;SDS011;29884;47.450;19.124;2023-01-15T06:37:34;18.75;;;9.80;;
44214;SDS011;29884;47.450;19.124;2023-01-15T06:39:59;18.65;;;10.68;;
44214;SDS011;29884;47.450;19.124;2023-01-15T06:42:25;19.98;;;10.88;;
44214;SDS011;29884;47.450;19.124;2023-01-15T06:45:09;17.77;;;10.48;;
44214;SDS011;29884;47.450;19.124;2023-01-15T06:47:54;20.33;;;10.05;;
44214;SDS011;29884;47.450;19.124;2023-01-15T06:50:21;23.20;;;11.32;;
44214;SDS011;29884;47.450;19.124;2023-01-15T06:52:47;29.75;;;14.98;;
44214;SDS011;29884;47.450;19.124;2023-01-15T06:55:13;24.48;;;12.50;;
44214;SDS011;29884;47.450;19.124;2023-01-15T06:57:39;22.45;;;12.82;;
44214;SDS011;29884;47.450;19.124;2023-01-15T07:00:06;21.25;;;10.68;;
44214;SDS011;29884;47.450;19.124;2023-01-15T07:02:33;22.17;;;11.55;;
44214;SDS011;29884;47.450;19.124;2023-01-15T07:05:01;19.33;;;11.38;;
44214;SDS011;29884;47.450;19.124;2023-01-15T07:07:27;21.10;;;10.55;;
44214;SDS011;29884;47.450;19.124;2023-01-15T07:09:53;21.65;;;11.70;;
44214;SDS011;29884;47.450;19.124;2023-01-15T07:12:19;22.65;;;12.23;;
44214;SDS011;29884;47.450;19.124;2023-01-15T07:14:45;21.23;;;11.05;;
44214;SDS011;29884;47.450;19.124;2023-01-15T07:17:11;26.52;;;13.30;;
44214;SDS011;29884;47.450;19.124;2023-01-15T07:19:37;23.88;;;12.55;;
44214;SDS011;29884;47.450;19.124;2023-01-15T07:22:03;21.10;;;11.30;;
44214;SDS011;29884;47.450;19.124;2023-01-15T07:24:30;26.27;;;12.45;;
44214;SDS011;29884;47.450;19.124;2023-01-15T07:26:56;22.58;;;12.68;;
44214;SDS011;29884;47.450;19.124;2023-01-15T07:29:21;27.55;;;12.43;;
44214;SDS011;29884;47.450;19.124;2023-01-15T07:31:47;23.02;;;12.80;;
44214;SDS011;29884;47.450;19.124;2023-01-15T07:34:14;26.00;;;12.55;;
44214;SDS011;29884;47.450;19.124;2023-01-15T07:36:40;21.70;;;11.57;;
44214;SDS011;29884;47.450;19.124;2023-01-15T07:39:07;22.58;;;12.68;;
44214;SDS011;29884;47.450;19.124;2023-01-15T07:41:34;20.75;;;11.70;;
44214;SDS011;29884;47.450;19.124;2023-01-15T07:44:18;19.13;;;11.15;;
44214;SDS011;29884;47.450;19.124;2023-01-15T07:47:06;22.33;;;11.32;;
44214;SDS011;29884;47.450;19.124;2023-01-15T07:50:02;24.48;;;12.88;;
44214;SDS011;29884;47.450;19.124;2023-01-15T07:52:29;27.92;;;14.45;;
44214;SDS011;29884;47.450;19.124;2023-01-15T07:54:55;24.75;;;13.88;;
44214;SDS011;29884;47.450;19.124;2023-01-15T07:57:20;27.33;;;14.45;;
44214;SDS011;29884;47.450;19.124;2023-01-15T07:59:47;23.23;;;12.82;;
44214;SDS011;29884;47.450;19.124;2023-01-15T08:02:14;24.35;;;13.20;;
44214;SDS011;29884;47.450;19.124;2023-01-15T08:04:39;22.45;;;12.90;;
44214;SDS011;29884;47.450;19.124;2023-01-15T08:07:06;22.20;;;13.63;;
44214;SDS011;29884;47.450;19.124;2023-01-15T08:09:32;24.38;;;12.98;;
44214;SDS011;29884;47.450;19.124;2023-01-15T08:11:59;25.10;;;13.65;;
44214;SDS011;29884;47.450;19.124;2023-01-15T08:14:44;26.70;;;14.13;;
44214;SDS011;29884;47.450;19.124;2023-01-15T08:17:29;28.80;;;15.05;;
44214;SDS011;29884;47.450;19.124;2023-01-15T08:19:57;26.00;;;13.98;;
44214;SDS011;29884;47.450;19.124;2023-01-15T08:22:23;23.77;;;12.82;;
44214;SDS011;29884;47.450;19.124;2023-01-15T08:24:49;23.10;;;13.20;;
44214;SDS011;29884;47.450;19.124;2023-01-15T08:27:15;24.95;;;13.45;;
44214;SDS011;29884;47.450;19.124;2023-01-15T08:29:41;26.02;;;14.15;;
44214;SDS011;29884;47.450;19.124;2023-01-15T08:32:06;24.55;;;12.82;;
44214;SDS011;29884;47.450;19.124;2023-01-15T08:34:33;27.88;;;13.00;;
44214;SDS011;29884;47.450;19.124;2023-01-15T08:36:58;25.75;;;13.30;;
44214;SDS011;29884;47.450;19.124;2023-01-15T08:39:25;24.65;;;13.82;;
44214;SDS011;29884;47.450;19.124;2023-01-15T08:41:51;26.23;;;13.52;;
44214;SDS011;29884;47.450;19.124;2023-01-15T08:44:18;25.92;;;13.48;;
44214;SDS011;29884;47.450;19.124;2023-01-15T08:46:45;27.65;;;14.57;;
44214;SDS011;29884;47.450;19.124;2023-01-15T08:49:12;25.52;;;13.77;;
44214;SDS011;29884;47.450;19.124;2023-01-15T08:51:38;26.40;;;13.80;;
44214;SDS011;29884;47.450;19.124;2023-01-15T08:54:04;22.52;;;12.05;;
44214;SDS011;29884;47.450;19.124;2023-01-15T08:56:30;23.48;;;13.02;;
44214;SDS011;29884;47.450;19.124;2023-01-15T08:58:55;23.08;;;13.18;;
44214;SDS011;29884;47.450;19.124;2023-01-15T09:01:21;27.92;;;14.02;;
44214;SDS011;29884;47.450;19.124;2023-01-15T09:03:47;22.73;;;12.75;;
44214;SDS011;29884;47.450;19.124;2023-01-15T09:06:12;19.13;;;11.77;;
44214;SDS011;29884;47.450;19.124;2023-01-15T09:08:39;29.45;;;14.75;;
44214;SDS011;29884;47.450;19.124;2023-01-15T09:11:05;20.10;;;11.13;;
44214;SDS011;29884;47.450;19.124;2023-01-15T09:13:34;20.13;;;11.45;;
44214;SDS011;29884;47.450;19.124;2023-01-15T09:16:02;21.35;;;12.38;;
44214;SDS011;29884;47.450;19.124;2023-01-15T09:18:29;17.73;;;10.65;;
44214;SDS011;29884;47.450;19.124;2023-01-15T09:20:55;20.80;;;11.50;;
44214;SDS011;29884;47.450;19.124;2023-01-15T09:23:22;18.40;;;10.45;;
44214;SDS011;29884;47.450;19.124;2023-01-15T09:25:52;18.67;;;11.23;;
44214;SDS011;29884;47.450;19.124;2023-01-15T09:28:24;17.35;;;10.23;;
44214;SDS011;29884;47.450;19.124;2023-01-15T09:30:51;17.35;;;9.70;;
44214;SDS011;29884;47.450;19.124;2023-01-15T09:33:17;18.55;;;10.23;;
44214;SDS011;29884;47.450;19.124;2023-01-15T09:35:43;14.57;;;8.65;;
44214;SDS011;29884;47.450;19.124;2023-01-15T09:38:12;14.50;;;9.60;;
44214;SDS011;29884;47.450;19.124;2023-01-15T09:46:32;14.30;;;8.40;;
44214;SDS011;29884;47.450;19.124;2023-01-15T09:49:10;13.80;;;7.88;;
44214;SDS011;29884;47.450;19.124;2023-01-15T09:54:26;13.55;;;8.27;;
44214;SDS011;29884;47.450;19.124;2023-01-15T09:57:35;13.07;;;7.30;;
44214;SDS011;29884;47.450;19.124;2023-01-15T10:00:03;14.65;;;7.43;;
44214;SDS011;29884;47.450;19.124;2023-01-15T10:02:34;13.38;;;7.95;;
44214;SDS011;29884;47.450;19.124;2023-01-15T10:10:34;12.77;;;7.40;;
44214;SDS011;29884;47.450;19.124;2023-01-15T10:13:16;15.68;;;7.85;;
44214;SDS011;29884;47.450;19.124;2023-01-15T10:15:52;18.42;;;7.38;;
44214;SDS011;29884;47.450;19.124;2023-01-15T10:18:19;10.38;;;7.20;;
44214;SDS011;29884;47.450;19.124;2023-01-15T10:34:59;9.75;;;6.07;;
44214;SDS011;29884;47.450;19.124;2023-01-15T10:37:49;15.35;;;7.18;;
44214;SDS011;29884;47.450;19.124;2023-01-15T10:43:38;12.10;;;6.80;;
44214;SDS011;29884;47.450;19.124;2023-01-15T10:46:13;10.80;;;6.13;;
44214;SDS011;29884;47.450;19.124;2023-01-15T10:49:02;10.82;;;7.10;;
44214;SDS011;29884;47.450;19.124;2023-01-15T10:51:48;9.98;;;6.25;;
44214;SDS011;29884;47.450;19.124;2023-01-15T10:54:28;10.80;;;6.18;;
44214;SDS011;29884;47.450;19.124;2023-01-15T11:00:09;21.30;;;9.23;;
44214;SDS011;29884;47.450;19.124;2023-01-15T11:02:46;16.02;;;9.45;;
44214;SDS011;29884;47.450;19.124;2023-01-15T11:05:35;12.38;;;7.15;;
44214;SDS011;29884;47.450;19.124;2023-01-15T11:08:04;11.68;;;6.90;;
44214;SDS011;29884;47.450;19.124;2023-01-15T11:10:36;11.25;;;6.53;;
44214;SDS011;29884;47.450;19.124;2023-01-15T11:16:16;11.03;;;6.73;;
44214;SDS011;29884;47.450;19.124;2023-01-15T11:19:05;11.23;;;6.38;;
44214;SDS011;29884;47.450;19.124;2023-01-15T11:21:58;11.82;;;7.32;;
44214;SDS011;29884;47.450;19.124;2023-01-15T11:24:25;14.70;;;7.35;;
44214;SDS011;29884;47.450;19.124;2023-01-15T11:26:51;12.60;;;7.50;;
44214;SDS011;29884;47.450;19.124;2023-01-15T11:31:59;10.88;;;7.22;;
44214;SDS011;29884;47.450;19.124;2023-01-15T11:34:25;11.45;;;7.97;;
44214;SDS011;29884;47.450;19.124;2023-01-15T11:37:03;12.18;;;7.15;;
44214;SDS011;29884;47.450;19.124;2023-01-15T11:39:29;12.68;;;7.78;;
44214;SDS011;29884;47.450;19.124;2023-01-15T11:42:03;14.02;;;7.60;;
44214;SDS011;29884;47.450;19.124;2023-01-15T11:44:58;13.48;;;7.95;;
44214;SDS011;29884;47.450;19.124;2023-01-15T11:47:54;12.25;;;7.30;;
44214;SDS011;29884;47.450;19.124;2023-01-15T11:51:01;14.00;;;8.00;;
44214;SDS011;29884;47.450;19.124;2023-01-15T11:56:19;13.45;;;7.55;;
44214;SDS011;29884;47.450;19.124;2023-01-15T11:58:52;13.02;;;7.93;;
44214;SDS011;29884;47.450;19.124;2023-01-15T12:01:20;11.80;;;7.35;;
44214;SDS011;29884;47.450;19.124;2023-01-15T12:03:52;14.05;;;8.63;;
44214;SDS011;29884;47.450;19.124;2023-01-15T12:06:19;14.40;;;8.80;;
44214;SDS011;29884;47.450;19.124;2023-01-15T12:16:54;14.80;;;9.18;;
44214;SDS011;29884;47.450;19.124;2023-01-15T12:19:49;14.63;;;8.15;;
44214;SDS011;29884;47.450;19.124;2023-01-15T12:35:41;15.18;;;9.65;;
44214;SDS011;29884;47.450;19.124;2023-01-15T12:38:17;16.95;;;9.57;;
44214;SDS011;29884;47.450;19.124;2023-01-15T12:40:53;18.73;;;10.93;;
44214;SDS011;29884;47.450;19.124;2023-01-15T12:43:37;18.20;;;10.32;;
44214;SDS011;29884;47.450;19.124;2023-01-15T12:46:25;31.80;;;14.73;;
44214;SDS011;29884;47.450;19.124;2023-01-15T12:51:44;22.45;;;11.90;;
44214;SDS011;29884;47.450;19.124;2023-01-15T12:54:19;17.00;;;9.70;;
44214;SDS011;29884;47.450;19.124;2023-01-15T12:56:54;14.93;;;9.30;;
44214;SDS011;29884;47.450;19.124;2023-01-15T12:59:29;16.83;;;9.32;;
44214;SDS011;29884;47.450;19.124;2023-01-15T13:04:51;17.08;;;9.52;;
44214;SDS011;29884;47.450;19.124;2023-01-15T13:10:22;19.77;;;11.45;;
44214;SDS011;29884;47.450;19.124;2023-01-15T13:12:53;17.52;;;10.43;;
44214;SDS011;29884;47.450;19.124;2023-01-15T13:15:24;20.75;;;10.15;;
44214;SDS011;29884;47.450;19.124;2023-01-15T13:18:03;16.42;;;9.98;;
44214;SDS011;29884;47.450;19.124;2023-01-15T13:23:08;29.02;;;14.75;;
44214;SDS011;29884;47.450;19.124;2023-01-15T13:33:42;19.80;;;12.18;;
44214;SDS011;29884;47.450;19.124;2023-01-15T13:36:17;22.65;;;10.38;;
44214;SDS011;29884;47.450;19.124;2023-01-15T13:38:46;16.40;;;8.73;;
44214;SDS011;29884;47.450;19.124;2023-01-15T13:41:18;17.27;;;8.85;;
44214;SDS011;29884;47.450;19.124;2023-01-15T13:44:10;13.10;;;8.52;;
44214;SDS011;29884;47.450;19.124;2023-01-15T13:46:59;15.10;;;7.95;;
44214;SDS011;29884;47.450;19.124;2023-01-15T13:49:40;24.45;;;12.32;;
44214;SDS011;29884;47.450;19.124;2023-01-15T13:52:30;11.45;;;7.45;;
44214;SDS011;29884;47.450;19.124;2023-01-15T13:55:07;12.65;;;7.68;;
44214;SDS011;29884;47.450;19.124;2023-01-15T13:57:43;13.57;;;7.78;;
44214;SDS011;29884;47.450;19.124;2023-01-15T14:02:55;10.90;;;7.20;;
44214;SDS011;29884;47.450;19.124;2023-01-15T14:07:51;16.08;;;9.18;;
44214;SDS011;29884;47.450;19.124;2023-01-15T14:18:16;15.38;;;8.55;;
44214;SDS011;29884;47.450;19.124;2023-01-15T14:26:33;29.20;;;12.15;;
44214;SDS011;29884;47.450;19.124;2023-01-15T14:35:11;44.42;;;14.13;;
44214;SDS011;29884;47.450;19.124;2023-01-15T14:38:02;38.60;;;13.05;;
44214;SDS011;29884;47.450;19.124;2023-01-15T14:40:31;46.05;;;16.20;;
44214;SDS011;29884;47.450;19.124;2023-01-15T14:42:59;69.03;;;18.80;;
44214;SDS011;29884;47.450;19.124;2023-01-15T14:48:05;62.50;;;18.90;;
44214;SDS011;29884;47.450;19.124;2023-01-15T14:50:37;31.45;;;13.02;;
44214;SDS011;29884;47.450;19.124;2023-01-15T14:55:51;16.05;;;9.43;;
44214;SDS011;29884;47.450;19.124;2023-01-15T15:00:49;17.52;;;9.85;;
44214;SDS011;29884;47.450;19.124;2023-01-15T15:03:21;22.08;;;14.57;;
44214;SDS011;29884;47.450;19.124;2023-01-15T15:05:55;18.02;;;9.95;;
44214;SDS011;29884;47.450;19.124;2023-01-15T15:08:21;19.42;;;11.18;;
44214;SDS011;29884;47.450;19.124;2023-01-15T15:10:53;17.10;;;9.25;;
44214;SDS011;29884;47.450;19.124;2023-01-15T15:13:27;18.23;;;11.00;;
44214;SDS011;29884;47.450;19.124;2023-01-15T15:18:40;17.48;;;10.73;;
44214;SDS011;29884;47.450;19.124;2023-01-15T15:21:27;19.48;;;11.60;;
44214;SDS011;29884;47.450;19.124;2023-01-15T15:24:14;19.77;;;12.20;;
44214;SDS011;29884;47.450;19.124;2023-01-15T15:27:08;20.27;;;12.07;;
44214;SDS011;29884;47.450;19.124;2023-01-15T15:29:43;21.48;;;12.38;;
44214;SDS011;29884;47.450;19.124;2023-01-15T15:32:16;22.23;;;12.43;;
44214;SDS011;29884;47.450;19.124;2023-01-15T15:34:45;21.35;;;12.55;;
44214;SDS011;29884;47.450;19.124;2023-01-15T15:37:16;20.08;;;11.88;;
44214;SDS011;29884;47.450;19.124;2023-01-15T15:45:23;24.08;;;13.00;;
44214;SDS011;29884;47.450;19.124;2023-01-15T15:51:02;20.15;;;11.20;;
44214;SDS011;29884;47.450;19.124;2023-01-15T15:53:29;18.98;;;12.10;;
44214;SDS011;29884;47.450;19.124;2023-01-15T15:55:55;21.13;;;12.65;;
44214;SDS011;29884;47.450;19.124;2023-01-15T15:58:23;20.80;;;12.70;;
44214;SDS011;29884;47.450;19.124;2023-01-15T16:00:50;19.70;;;12.52;;
44214;SDS011;29884;47.450;19.124;2023-01-15T16:03:22;20.65;;;11.98;;
44214;SDS011;29884;47.450;19.124;2023-01-15T16:06:00;20.08;;;11.77;;
44214;SDS011;29884;47.450;19.124;2023-01-15T16:08:27;22.58;;;11.40;;
44214;SDS011;29884;47.450;19.124;2023-01-15T16:11:00;21.33;;;12.02;;
44214;SDS011;29884;47.450;19.124;2023-01-15T16:16:04;19.65;;;11.63;;
44214;SDS011;29884;47.450;19.124;2023-01-15T16:18:41;19.70;;;12.50;;
44214;SDS011;29884;47.450;19.124;2023-01-15T16:21:44;26.17;;;14.00;;
44214;SDS011;29884;47.450;19.124;2023-01-15T16:24:06;23.38;;;14.65;;
44214;SDS011;29884;47.450;19.124;2023-01-15T16:26:37;23.90;;;14.95;;
44214;SDS011;29884;47.450;19.124;2023-01-15T16:29:15;21.95;;;15.63;;
44214;SDS011;29884;47.450;19.124;2023-01-15T16:31:49;28.83;;;15.95;;
44214;SDS011;29884;47.450;19.124;2023-01-15T16:34:23;24.23;;;15.43;;
44214;SDS011;29884;47.450;19.124;2023-01-15T16:36:54;23.40;;;15.20;;
44214;SDS011;29884;47.450;19.124;2023-01-15T16:42:00;26.13;;;15.38;;
44214;SDS011;29884;47.450;19.124;2023-01-15T16:44:36;26.00;;;15.23;;
44214;SDS011;29884;47.450;19.124;2023-01-15T16:52:58;27.73;;;16.33;;
44214;SDS011;29884;47.450;19.124;2023-01-15T17:00:40;24.15;;;14.93;;
44214;SDS011;29884;47.450;19.124;2023-01-15T17:03:11;24.88;;;15.25;;
44214;SDS011;29884;47.450;19.124;2023-01-15T17:05:39;40.03;;;22.00;;
44214;SDS011;29884;47.450;19.124;2023-01-15T17:11:16;30.92;;;17.08;;
44214;SDS011;29884;47.450;19.124;2023-01-15T17:13:48;35.80;;;20.95;;
44214;SDS011;29884;47.450;19.124;2023-01-15T17:16:16;34.17;;;19.00;;
44214;SDS011;29884;47.450;19.124;2023-01-15T17:18:44;33.70;;;18.95;;
44214;SDS011;29884;47.450;19.124;2023-01-15T17:21:21;34.20;;;19.60;;
44214;SDS011;29884;47.450;19.124;2023-01-15T17:23:51;32.90;;;18.92;;
44214;SDS011;29884;47.450;19.124;2023-01-15T17:26:22;31.52;;;18.85;;
44214;SDS011;29884;47.450;19.124;2023-01-15T17:28:50;31.23;;;18.08;;
44214;SDS011;29884;47.450;19.124;2023-01-15T17:33:59;30.17;;;17.23;;
44214;SDS011;29884;47.450;19.124;2023-01-15T17:36:26;28.40;;;17.75;;
44214;SDS011;29884;47.450;19.124;2023-01-15T17:38:53;30.05;;;18.17;;